sensor_id;sensor_type;location;lat;lon;timestamp;pressure;altitude;pressure_sealevel;temperature;humidity
73024;BME280;61199;47.526;8.538;2023-02-22T00:00:22;96376.75;;;9.69;58.42
73024;BME280;61199;47.526;8.538;2023-02-22T00:02:54;96380.75;;;9.73;58.23
73024;BME280;61199;47.526;8.538;2023-02-22T00:05:26;96383.34;;;9.64;58.28
73024;BME280;61199;47.526;8.538;2023-02-22T00:07:54;96378.50;;;9.59;58.41
73024;BME280;61199;47.526;8.538;2023-02-22T00:10:23;96381.50;;;9.55;58.85
73024;BME280;61199;47.526;8.538;2023-02-22T00:12:51;96386.34;;;9.59;58.79
73024;BME280;61199;47.526;8.538;2023-02-22T00:15:21;96384.94;;;9.55;58.82
73024;BME280;61199;47.526;8.538;2023-02-22T00:17:48;96389.53;;;9.42;59.08
73024;BME280;61199;47.526;8.538;2023-02-22T00:20:15;96389.47;;;9.33;59.43
73024;BME280;61199;47.526;8.538;2023-02-22T00:22:46;96390.56;;;9.30;59.94
73024;BME280;61199;47.526;8.538;2023-02-22T00:25:14;96385.41;;;9.40;59.80
73024;BME280;61199;47.526;8.538;2023-02-22T00:27:43;96391.50;;;9.29;59.49
73024;BME280;61199;47.526;8.538;2023-02-22T00:30:18;96388.41;;;9.35;59.50
73024;BME280;61199;47.526;8.538;2023-02-22T00:32:46;96388.97;;;9.39;59.30
73024;BME280;61199;47.526;8.538;2023-02-22T00:35:14;96388.84;;;9.40;59.07
73024;BME280;61199;47.526;8.538;2023-02-22T00:37:41;96389.16;;;9.26;59.34
73024;BME280;61199;47.526;8.538;2023-02-22T00:40:09;96382.72;;;9.30;59.27
73024;BME280;61199;47.526;8.538;2023-02-22T00:42:35;96390.06;;;9.36;58.85
73024;BME280;61199;47.526;8.538;2023-02-22T00:45:03;96394.59;;;9.34;58.91
73024;BME280;61199;47.526;8.538;2023-02-22T00:47:30;96389.22;;;9.15;59.49
73024;BME280;61199;47.526;8.538;2023-02-22T00:49:56;96381.38;;;9.15;59.49
73024;BME280;61199;47.526;8.538;2023-02-22T00:52:23;96377.72;;;9.07;59.74
73024;BME280;61199;47.526;8.538;2023-02-22T00:54:49;96385.13;;;9.02;59.98
73024;BME280;61199;47.526;8.538;2023-02-22T00:57:17;96385.94;;;9.02;60.20
73024;BME280;61199;47.526;8.538;2023-02-22T00:59:44;96378.56;;;9.07;59.93
73024;BME280;61199;47.526;8.538;2023-02-22T01:02:10;96378.56;;;9.07;59.90
73024;BME280;61199;47.526;8.538;2023-02-22T01:04:37;96374.09;;;8.98;59.56
73024;BME280;61199;47.526;8.538;2023-02-22T01:07:04;96378.69;;;8.85;59.94
73024;BME280;61199;47.526;8.538;2023-02-22T01:09:30;96370.47;;;8.90;59.86
73024;BME280;61199;47.526;8.538;2023-02-22T01:11:57;96368.56;;;8.92;60.11
73024;BME280;61199;47.526;8.538;2023-02-22T01:14:25;96372.19;;;9.00;59.92
73024;BME280;61199;47.526;8.538;2023-02-22T01:16:54;96368.50;;;9.03;60.19
73024;BME280;61199;47.526;8.538;2023-02-22T01:19:21;96366.75;;;8.92;60.16
73024;BME280;61199;47.526;8.538;2023-02-22T01:21:48;96364.91;;;8.83;60.34
73024;BME280;61199;47.526;8.538;2023-02-22T01:24:16;96354.66;;;8.91;60.31
73024;BME280;61199;47.526;8.538;2023-02-22T01:26:47;96361.09;;;8.87;60.85
73024;BME280;61199;47.526;8.538;2023-02-22T01:29:15;96356.38;;;8.81;60.45
73024;BME280;61199;47.526;8.538;2023-02-22T01:31:43;96353.75;;;8.81;60.65
73024;BME280;61199;47.526;8.538;2023-02-22T01:34:17;96361.59;;;8.81;60.46
73024;BME280;61199;47.526;8.538;2023-02-22T01:36:43;96352.22;;;8.79;60.53
73024;BME280;61199;47.526;8.538;2023-02-22T01:39:09;96356.06;;;8.75;60.72
73024;BME280;61199;47.526;8.538;2023-02-22T01:41:36;96356.44;;;8.70;60.58
73024;BME280;61199;47.526;8.538;2023-02-22T01:44:33;96343.66;;;8.57;61.13
73024;BME280;61199;47.526;8.538;2023-02-22T01:47:02;96352.47;;;8.45;61.58
73024;BME280;61199;47.526;8.538;2023-02-22T01:49:43;96350.25;;;8.40;61.22
73024;BME280;61199;47.526;8.538;2023-02-22T01:52:18;96347.84;;;8.48;60.76
73024;BME280;61199;47.526;8.538;2023-02-22T01:54:52;96347.31;;;8.34;61.69
73024;BME280;61199;47.526;8.538;2023-02-22T01:57:30;96347.75;;;8.39;61.54
73024;BME280;61199;47.526;8.538;2023-02-22T02:00:07;96348.38;;;8.31;61.01
73024;BME280;61199;47.526;8.538;2023-02-22T02:02:40;96350.16;;;8.31;61.43
73024;BME280;61199;47.526;8.538;2023-02-22T02:05:08;96348.00;;;8.36;61.27
73024;BME280;61199;47.526;8.538;2023-02-22T02:07:36;96354.19;;;8.35;61.11
73024;BME280;61199;47.526;8.538;2023-02-22T02:10:09;96353.22;;;8.36;61.19
73024;BME280;61199;47.526;8.538;2023-02-22T02:12:42;96348.75;;;8.27;61.06
73024;BME280;61199;47.526;8.538;2023-02-22T02:15:28;96344.00;;;8.21;61.49
73024;BME280;61199;47.526;8.538;2023-02-22T02:17:58;96346.59;;;8.21;60.92
73024;BME280;61199;47.526;8.538;2023-02-22T02:20:31;96338.66;;;8.22;61.34
73024;BME280;61199;47.526;8.538;2023-02-22T02:26:24;96343.19;;;8.09;61.16
73024;BME280;61199;47.526;8.538;2023-02-22T02:34:55;96340.91;;;8.16;60.66
73024;BME280;61199;47.526;8.538;2023-02-22T02:40:38;96329.41;;;8.18;60.94
73024;BME280;61199;47.526;8.538;2023-02-22T02:43:11;96320.03;;;8.16;60.25
73024;BME280;61199;47.526;8.538;2023-02-22T02:46:35;96319.19;;;8.15;61.20
73024;BME280;61199;47.526;8.538;2023-02-22T02:48:41;96323.59;;;8.15;60.73
73024;BME280;61199;47.526;8.538;2023-02-22T02:51:10;96319.34;;;8.14;60.53
73024;BME280;61199;47.526;8.538;2023-02-22T02:53:42;96312.69;;;8.21;60.39
73024;BME280;61199;47.526;8.538;2023-02-22T02:56:10;96313.16;;;8.15;60.51
73024;BME280;61199;47.526;8.538;2023-02-22T02:58:50;96308.69;;;8.06;60.78
73024;BME280;61199;47.526;8.538;2023-02-22T03:09:39;96304.28;;;8.06;60.36
73024;BME280;61199;47.526;8.538;2023-02-22T03:18:07;96297.09;;;7.88;61.32
73024;BME280;61199;47.526;8.538;2023-02-22T03:20:42;96298.75;;;7.89;61.44
73024;BME280;61199;47.526;8.538;2023-02-22T03:23:23;96289.75;;;7.82;61.76
73024;BME280;61199;47.526;8.538;2023-02-22T03:25:57;96298.28;;;7.84;61.79
73024;BME280;61199;47.526;8.538;2023-02-22T03:28:27;96295.09;;;7.80;61.90
73024;BME280;61199;47.526;8.538;2023-02-22T03:31:18;96293.59;;;7.67;62.75
73024;BME280;61199;47.526;8.538;2023-02-22T03:34:00;96294.75;;;7.63;63.33
73024;BME280;61199;47.526;8.538;2023-02-22T03:36:31;96287.06;;;7.61;63.04
73024;BME280;61199;47.526;8.538;2023-02-22T03:38:59;96292.75;;;7.66;63.02
73024;BME280;61199;47.526;8.538;2023-02-22T03:41:30;96292.75;;;7.66;62.70
73024;BME280;61199;47.526;8.538;2023-02-22T03:44:05;96293.31;;;7.81;62.09
73024;BME280;61199;47.526;8.538;2023-02-22T03:46:32;96293.56;;;7.78;62.38
73024;BME280;61199;47.526;8.538;2023-02-22T03:49:07;96301.97;;;7.70;61.86
73024;BME280;61199;47.526;8.538;2023-02-22T03:51:35;96300.91;;;7.73;61.67
73024;BME280;61199;47.526;8.538;2023-02-22T03:54:02;96299.03;;;7.64;62.37
73024;BME280;61199;47.526;8.538;2023-02-22T03:56:32;96297.25;;;7.64;62.01
73024;BME280;61199;47.526;8.538;2023-02-22T03:59:06;96293.81;;;7.64;61.61
73024;BME280;61199;47.526;8.538;2023-02-22T04:01:33;96302.84;;;7.60;61.86
73024;BME280;61199;47.526;8.538;2023-02-22T04:04:00;96291.56;;;7.59;61.84
73024;BME280;61199;47.526;8.538;2023-02-22T04:06:27;96311.13;;;7.54;61.72
73024;BME280;61199;47.526;8.538;2023-02-22T04:08:54;96302.34;;;7.55;61.54
73024;BME280;61199;47.526;8.538;2023-02-22T04:11:21;96292.50;;;7.58;60.84
73024;BME280;61199;47.526;8.538;2023-02-22T04:13:47;96305.91;;;7.54;61.25
73024;BME280;61199;47.526;8.538;2023-02-22T04:16:14;96308.28;;;7.46;61.36
73024;BME280;61199;47.526;8.538;2023-02-22T04:18:40;96305.44;;;7.49;61.49
73024;BME280;61199;47.526;8.538;2023-02-22T04:21:07;96291.94;;;7.33;62.06
73024;BME280;61199;47.526;8.538;2023-02-22T04:23:34;96301.50;;;7.32;61.77
73024;BME280;61199;47.526;8.538;2023-02-22T04:26:00;96290.38;;;7.41;61.80
73024;BME280;61199;47.526;8.538;2023-02-22T04:28:27;96304.50;;;7.50;60.95
73024;BME280;61199;47.526;8.538;2023-02-22T04:30:53;96290.03;;;7.46;61.65
73024;BME280;61199;47.526;8.538;2023-02-22T04:33:20;96294.53;;;7.44;61.87
73024;BME280;61199;47.526;8.538;2023-02-22T04:35:46;96297.03;;;7.45;61.37
73024;BME280;61199;47.526;8.538;2023-02-22T04:38:12;96291.69;;;7.47;61.32
73024;BME280;61199;47.526;8.538;2023-02-22T04:40:39;96293.94;;;7.51;61.81
73024;BME280;61199;47.526;8.538;2023-02-22T04:43:05;96293.00;;;7.41;61.81
73024;BME280;61199;47.526;8.538;2023-02-22T04:45:32;96288.72;;;7.51;61.48
73024;BME280;61199;47.526;8.538;2023-02-22T04:47:58;96291.94;;;7.55;61.88
73024;BME280;61199;47.526;8.538;2023-02-22T04:50:24;96288.16;;;7.59;61.40
73024;BME280;61199;47.526;8.538;2023-02-22T04:52:51;96292.16;;;7.52;61.42
73024;BME280;61199;47.526;8.538;2023-02-22T04:55:17;96293.34;;;7.48;61.77
73024;BME280;61199;47.526;8.538;2023-02-22T04:57:44;96300.25;;;7.49;62.04
73024;BME280;61199;47.526;8.538;2023-02-22T05:00:16;96296.69;;;7.50;62.36
73024;BME280;61199;47.526;8.538;2023-02-22T05:02:42;96300.09;;;7.50;62.04
73024;BME280;61199;47.526;8.538;2023-02-22T05:05:09;96292.63;;;7.46;62.09
73024;BME280;61199;47.526;8.538;2023-02-22T05:07:36;96285.66;;;7.46;62.53
73024;BME280;61199;47.526;8.538;2023-02-22T05:10:02;96288.88;;;7.50;62.19
73024;BME280;61199;47.526;8.538;2023-02-22T05:12:29;96288.84;;;7.39;62.41
73024;BME280;61199;47.526;8.538;2023-02-22T05:14:55;96291.34;;;7.29;62.52
73024;BME280;61199;47.526;8.538;2023-02-22T05:17:22;96290.38;;;7.41;62.05
73024;BME280;61199;47.526;8.538;2023-02-22T05:19:49;96283.88;;;7.36;62.46
73024;BME280;61199;47.526;8.538;2023-02-22T05:22:15;96289.31;;;7.44;62.66
73024;BME280;61199;47.526;8.538;2023-02-22T05:24:42;96290.38;;;7.41;62.48
73024;BME280;61199;47.526;8.538;2023-02-22T05:27:09;96282.56;;;7.52;62.14
73024;BME280;61199;47.526;8.538;2023-02-22T05:29:35;96282.69;;;7.51;62.40
73024;BME280;61199;47.526;8.538;2023-02-22T05:32:04;96284.47;;;7.50;62.24
73024;BME280;61199;47.526;8.538;2023-02-22T05:34:31;96280.31;;;7.48;61.61
73024;BME280;61199;47.526;8.538;2023-02-22T05:36:58;96285.53;;;7.48;61.87
73024;BME280;61199;47.526;8.538;2023-02-22T05:39:24;96276.53;;;7.52;61.90
73024;BME280;61199;47.526;8.538;2023-02-22T05:41:51;96284.38;;;7.41;62.13
73024;BME280;61199;47.526;8.538;2023-02-22T05:44:17;96277.94;;;7.45;61.92
73024;BME280;61199;47.526;8.538;2023-02-22T05:46:44;96288.63;;;7.42;62.29
73024;BME280;61199;47.526;8.538;2023-02-22T05:49:10;96282.34;;;7.44;61.93
73024;BME280;61199;47.526;8.538;2023-02-22T05:51:36;96285.06;;;7.43;62.16
73024;BME280;61199;47.526;8.538;2023-02-22T05:54:03;96279.84;;;7.54;61.98
73024;BME280;61199;47.526;8.538;2023-02-22T05:56:29;96279.50;;;7.58;61.66
73024;BME280;61199;47.526;8.538;2023-02-22T05:58:56;96274.16;;;7.60;61.50
73024;BME280;61199;47.526;8.538;2023-02-22T06:01:23;96276.63;;;7.61;61.63
73024;BME280;61199;47.526;8.538;2023-02-22T06:03:51;96277.25;;;7.54;61.79
73024;BME280;61199;47.526;8.538;2023-02-22T06:06:18;96279.03;;;7.53;61.81
73024;BME280;61199;47.526;8.538;2023-02-22T06:08:47;96279.59;;;7.57;61.24
73024;BME280;61199;47.526;8.538;2023-02-22T06:11:14;96281.75;;;7.52;62.09
73024;BME280;61199;47.526;8.538;2023-02-22T06:13:41;96271.06;;;7.55;61.83
73024;BME280;61199;47.526;8.538;2023-02-22T06:16:07;96276.06;;;7.58;61.69
73024;BME280;61199;47.526;8.538;2023-02-22T06:18:33;96277.94;;;7.56;61.30
73024;BME280;61199;47.526;8.538;2023-02-22T06:21:00;96291.22;;;7.42;62.14
73024;BME280;61199;47.526;8.538;2023-02-22T06:23:27;96280.56;;;7.45;61.96
73024;BME280;61199;47.526;8.538;2023-02-22T06:25:53;96283.88;;;7.47;61.88
73024;BME280;61199;47.526;8.538;2023-02-22T06:28:20;96281.41;;;7.45;61.61
73024;BME280;61199;47.526;8.538;2023-02-22T06:30:46;96282.56;;;7.52;61.42
73024;BME280;61199;47.526;8.538;2023-02-22T06:33:12;96284.81;;;7.46;61.67
73024;BME280;61199;47.526;8.538;2023-02-22T06:35:39;96289.78;;;7.38;61.78
73024;BME280;61199;47.526;8.538;2023-02-22T06:38:06;96290.03;;;7.35;61.72
73024;BME280;61199;47.526;8.538;2023-02-22T06:40:32;96290.03;;;7.35;62.01
73024;BME280;61199;47.526;8.538;2023-02-22T06:42:59;96290.53;;;7.40;61.39
73024;BME280;61199;47.526;8.538;2023-02-22T06:45:25;96296.44;;;7.42;61.78
73024;BME280;61199;47.526;8.538;2023-02-22T06:47:52;96302.25;;;7.45;61.95
73024;BME280;61199;47.526;8.538;2023-02-22T06:50:24;96298.78;;;7.45;61.95
73024;BME280;61199;47.526;8.538;2023-02-22T06:52:51;96295.34;;;7.33;61.81
73024;BME280;61199;47.526;8.538;2023-02-22T06:55:19;96299.63;;;7.34;61.85
73024;BME280;61199;47.526;8.538;2023-02-22T06:57:46;96300.56;;;7.33;62.20
73024;BME280;61199;47.526;8.538;2023-02-22T07:00:16;96303.78;;;7.37;62.10
73024;BME280;61199;47.526;8.538;2023-02-22T07:02:43;96298.81;;;7.34;62.13
73024;BME280;61199;47.526;8.538;2023-02-22T07:05:11;96300.09;;;7.39;61.86
73024;BME280;61199;47.526;8.538;2023-02-22T07:07:38;96305.41;;;7.38;62.22
73024;BME280;61199;47.526;8.538;2023-02-22T07:10:06;96301.88;;;7.39;62.17
73024;BME280;61199;47.526;8.538;2023-02-22T07:12:34;96312.06;;;7.42;62.54
73024;BME280;61199;47.526;8.538;2023-02-22T07:15:00;96307.31;;;7.36;62.56
73024;BME280;61199;47.526;8.538;2023-02-22T07:17:27;96305.19;;;7.19;63.10
73024;BME280;61199;47.526;8.538;2023-02-22T07:19:53;96312.44;;;7.26;63.04
73024;BME280;61199;47.526;8.538;2023-02-22T07:22:19;96313.25;;;7.27;63.21
73024;BME280;61199;47.526;8.538;2023-02-22T07:24:46;96315.38;;;7.33;63.12
73024;BME280;61199;47.526;8.538;2023-02-22T07:27:13;96311.81;;;7.23;63.29
73024;BME280;61199;47.526;8.538;2023-02-22T07:29:41;96306.13;;;7.18;63.40
73024;BME280;61199;47.526;8.538;2023-02-22T07:32:08;96308.97;;;7.26;63.54
73024;BME280;61199;47.526;8.538;2023-02-22T07:34:35;96313.94;;;7.29;63.51
73024;BME280;61199;47.526;8.538;2023-02-22T07:37:02;96312.88;;;7.31;64.07
73024;BME280;61199;47.526;8.538;2023-02-22T07:39:28;96313.47;;;7.24;64.12
73024;BME280;61199;47.526;8.538;2023-02-22T07:41:55;96309.78;;;7.15;64.55
73024;BME280;61199;47.526;8.538;2023-02-22T07:44:21;96296.66;;;7.17;64.93
73024;BME280;61199;47.526;8.538;2023-02-22T07:46:48;96307.44;;;7.12;65.13
73024;BME280;61199;47.526;8.538;2023-02-22T07:49:15;96300.81;;;7.19;65.01
73024;BME280;61199;47.526;8.538;2023-02-22T07:51:42;96305.06;;;7.31;64.52
73024;BME280;61199;47.526;8.538;2023-02-22T07:54:08;96304.47;;;7.39;64.65
73024;BME280;61199;47.526;8.538;2023-02-22T07:56:34;96299.53;;;7.58;64.32
73024;BME280;61199;47.526;8.538;2023-02-22T07:59:01;96289.53;;;7.74;63.42
73024;BME280;61199;47.526;8.538;2023-02-22T08:01:27;96292.47;;;7.80;63.37
73024;BME280;61199;47.526;8.538;2023-02-22T08:03:54;96293.78;;;7.75;63.60
73024;BME280;61199;47.526;8.538;2023-02-22T08:06:21;96294.03;;;7.72;63.82
73024;BME280;61199;47.526;8.538;2023-02-22T08:08:50;96294.28;;;7.69;64.19
73024;BME280;61199;47.526;8.538;2023-02-22T08:11:17;96296.91;;;7.58;64.65
73024;BME280;61199;47.526;8.538;2023-02-22T08:13:44;96296.41;;;7.64;64.42
73024;BME280;61199;47.526;8.538;2023-02-22T08:16:10;96288.84;;;7.72;64.42
73024;BME280;61199;47.526;8.538;2023-02-22T08:18:36;96297.94;;;7.77;64.64
73024;BME280;61199;47.526;8.538;2023-02-22T08:21:04;96294.72;;;7.85;64.41
73024;BME280;61199;47.526;8.538;2023-02-22T08:23:30;96298.28;;;7.84;64.70
73024;BME280;61199;47.526;8.538;2023-02-22T08:26:09;96301.88;;;7.72;64.73
73024;BME280;61199;47.526;8.538;2023-02-22T08:28:40;96301.84;;;7.83;64.45
73024;BME280;61199;47.526;8.538;2023-02-22T08:31:07;96303.03;;;7.90;64.22
73024;BME280;61199;47.526;8.538;2023-02-22T08:33:34;96301.13;;;7.92;64.22
73024;BME280;61199;47.526;8.538;2023-02-22T08:36:00;96296.75;;;7.92;64.62
73024;BME280;61199;47.526;8.538;2023-02-22T08:38:29;96297.41;;;8.05;64.48
73024;BME280;61199;47.526;8.538;2023-02-22T08:40:55;96299.44;;;8.13;63.96
73024;BME280;61199;47.526;8.538;2023-02-22T08:43:22;96295.75;;;8.26;64.00
73024;BME280;61199;47.526;8.538;2023-02-22T08:45:49;96299.25;;;8.36;63.87
73024;BME280;61199;47.526;8.538;2023-02-22T08:48:17;96296.41;;;8.39;63.77
73024;BME280;61199;47.526;8.538;2023-02-22T08:50:44;96297.97;;;8.31;63.39
73024;BME280;61199;47.526;8.538;2023-02-22T08:53:12;96298.69;;;8.33;64.04
73024;BME280;61199;47.526;8.538;2023-02-22T08:55:39;96288.94;;;8.35;64.09
73024;BME280;61199;47.526;8.538;2023-02-22T08:58:07;96284.22;;;8.29;64.48
73024;BME280;61199;47.526;8.538;2023-02-22T09:00:38;96294.59;;;8.40;64.39
73024;BME280;61199;47.526;8.538;2023-02-22T09:03:07;96300.00;;;8.59;63.68
73024;BME280;61199;47.526;8.538;2023-02-22T09:05:34;96287.88;;;8.57;63.86
73024;BME280;61199;47.526;8.538;2023-02-22T09:08:01;96290.19;;;8.71;63.59
73024;BME280;61199;47.526;8.538;2023-02-22T09:10:30;96285.09;;;8.90;63.03
73024;BME280;61199;47.526;8.538;2023-02-22T09:12:57;96295.28;;;8.93;63.08
73024;BME280;61199;47.526;8.538;2023-02-22T09:15:26;96293.81;;;9.00;63.01
73024;BME280;61199;47.526;8.538;2023-02-22T09:17:53;96295.56;;;9.11;62.65
73024;BME280;61199;47.526;8.538;2023-02-22T09:20:21;96285.28;;;9.19;62.30
73024;BME280;61199;47.526;8.538;2023-02-22T09:22:49;96282.28;;;9.23;62.30
73024;BME280;61199;47.526;8.538;2023-02-22T09:25:16;96276.69;;;9.37;62.20
73024;BME280;61199;47.526;8.538;2023-02-22T09:27:49;96276.94;;;9.55;61.50
73024;BME280;61199;47.526;8.538;2023-02-22T09:30:20;96284.22;;;9.01;63.24
73024;BME280;61199;47.526;8.538;2023-02-22T09:32:55;96284.03;;;9.13;63.37
73024;BME280;61199;47.526;8.538;2023-02-22T09:35:23;96280.00;;;9.39;62.41
73024;BME280;61199;47.526;8.538;2023-02-22T09:37:56;96275.69;;;9.59;61.84
73024;BME280;61199;47.526;8.538;2023-02-22T09:40:25;96271.59;;;9.75;61.14
73024;BME280;61199;47.526;8.538;2023-02-22T09:45:33;96264.97;;;10.20;60.33
73024;BME280;61199;47.526;8.538;2023-02-22T09:48:05;96266.63;;;10.12;60.61
73024;BME280;61199;47.526;8.538;2023-02-22T09:50:48;96272.88;;;10.30;60.53
73024;BME280;61199;47.526;8.538;2023-02-22T09:53:32;96265.72;;;10.41;60.34
73024;BME280;61199;47.526;8.538;2023-02-22T09:56:07;96266.34;;;10.15;61.41
73024;BME280;61199;47.526;8.538;2023-02-22T09:58:41;96268.84;;;10.45;60.93
73024;BME280;61199;47.526;8.538;2023-02-22T10:01:32;96262.94;;;10.71;59.90
73024;BME280;61199;47.526;8.538;2023-02-22T10:07:03;96258.00;;;10.68;60.79
73024;BME280;61199;47.526;8.538;2023-02-22T10:09:34;96261.81;;;10.83;60.75
73024;BME280;61199;47.526;8.538;2023-02-22T10:12:22;96264.31;;;10.75;61.26
73024;BME280;61199;47.526;8.538;2023-02-22T10:17:52;96254.53;;;10.77;61.20
73024;BME280;61199;47.526;8.538;2023-02-22T10:26:26;96242.81;;;10.24;61.92
73024;BME280;61199;47.526;8.538;2023-02-22T10:29:04;96246.97;;;10.36;62.45
73024;BME280;61199;47.526;8.538;2023-02-22T10:31:40;96253.03;;;10.46;61.07
73024;BME280;61199;47.526;8.538;2023-02-22T10:34:14;96243.66;;;10.53;60.70
73024;BME280;61199;47.526;8.538;2023-02-22T10:36:45;96244.22;;;10.57;60.44
73024;BME280;61199;47.526;8.538;2023-02-22T10:41:50;96242.25;;;10.87;59.76
73024;BME280;61199;47.526;8.538;2023-02-22T10:44:19;96239.72;;;10.95;59.72
73024;BME280;61199;47.526;8.538;2023-02-22T10:46:46;96233.06;;;11.10;59.57
73024;BME280;61199;47.526;8.538;2023-02-22T10:49:19;96228.28;;;11.42;58.75
73024;BME280;61199;47.526;8.538;2023-02-22T10:52:00;96232.16;;;11.38;58.09
73024;BME280;61199;47.526;8.538;2023-02-22T10:54:30;96220.78;;;11.47;58.30
73024;BME280;61199;47.526;8.538;2023-02-22T10:56:57;96225.00;;;11.67;57.58
73024;BME280;61199;47.526;8.538;2023-02-22T10:59:28;96229.47;;;11.84;57.10
73024;BME280;61199;47.526;8.538;2023-02-22T11:01:56;96227.44;;;11.78;56.33
73024;BME280;61199;47.526;8.538;2023-02-22T11:04:22;96220.19;;;11.63;56.80
73024;BME280;61199;47.526;8.538;2023-02-22T11:09:24;96220.44;;;11.69;57.04
73024;BME280;61199;47.526;8.538;2023-02-22T11:12:10;96215.78;;;12.07;56.69
73024;BME280;61199;47.526;8.538;2023-02-22T11:14:36;96217.47;;;12.26;56.45
73024;BME280;61199;47.526;8.538;2023-02-22T11:17:08;96216.41;;;12.19;56.64
73024;BME280;61199;47.526;8.538;2023-02-22T11:19:37;96210.53;;;12.07;56.80
73024;BME280;61199;47.526;8.538;2023-02-22T11:22:13;96204.59;;;12.23;57.21
73024;BME280;61199;47.526;8.538;2023-02-22T11:24:47;96198.84;;;12.37;57.34
73024;BME280;61199;47.526;8.538;2023-02-22T11:27:24;96199.50;;;12.56;57.22
73024;BME280;61199;47.526;8.538;2023-02-22T11:29:51;96191.16;;;12.61;57.27
73024;BME280;61199;47.526;8.538;2023-02-22T11:32:18;96181.00;;;12.91;56.82
73024;BME280;61199;47.526;8.538;2023-02-22T11:34:48;96186.31;;;13.17;56.23
73024;BME280;61199;47.526;8.538;2023-02-22T11:37:35;96178.19;;;13.36;56.11
73024;BME280;61199;47.526;8.538;2023-02-22T11:42:37;96174.47;;;13.54;55.57
73024;BME280;61199;47.526;8.538;2023-02-22T11:45:33;96175.88;;;13.33;55.13
73024;BME280;61199;47.526;8.538;2023-02-22T11:48:01;96171.38;;;13.59;54.72
73024;BME280;61199;47.526;8.538;2023-02-22T11:50:33;96174.25;;;13.40;54.14
73024;BME280;61199;47.526;8.538;2023-02-22T11:56:13;96172.53;;;13.56;54.16
73024;BME280;61199;47.526;8.538;2023-02-22T11:58:47;96166.78;;;13.69;53.53
73024;BME280;61199;47.526;8.538;2023-02-22T12:07:00;96165.66;;;13.30;55.27
73024;BME280;61199;47.526;8.538;2023-02-22T12:10:02;96154.63;;;13.68;55.02
73024;BME280;61199;47.526;8.538;2023-02-22T12:12:39;96154.69;;;13.92;54.06
73024;BME280;61199;47.526;8.538;2023-02-22T12:17:51;96158.13;;;13.35;55.06
73024;BME280;61199;47.526;8.538;2023-02-22T12:20:45;96149.50;;;13.58;55.03
73024;BME280;61199;47.526;8.538;2023-02-22T12:23:21;96146.81;;;13.92;54.34
73024;BME280;61199;47.526;8.538;2023-02-22T12:26:17;96153.59;;;14.02;54.13
73024;BME280;61199;47.526;8.538;2023-02-22T12:28:57;96143.91;;;14.19;53.32
73024;BME280;61199;47.526;8.538;2023-02-22T12:31:27;96142.59;;;14.31;53.12
73024;BME280;61199;47.526;8.538;2023-02-22T12:36:52;96142.75;;;14.85;50.25
73024;BME280;61199;47.526;8.538;2023-02-22T12:45:35;96141.28;;;14.35;50.50
73024;BME280;61199;47.526;8.538;2023-02-22T12:48:08;96138.41;;;15.00;49.67
73024;BME280;61199;47.526;8.538;2023-02-22T12:50:45;96133.44;;;15.59;48.80
73024;BME280;61199;47.526;8.538;2023-02-22T12:53:28;96134.59;;;15.95;47.48
73024;BME280;61199;47.526;8.538;2023-02-22T12:56:21;96139.34;;;15.39;49.18
73024;BME280;61199;47.526;8.538;2023-02-22T12:59:02;96140.66;;;15.35;49.24
73024;BME280;61199;47.526;8.538;2023-02-22T13:01:45;96139.38;;;15.15;50.06
73024;BME280;61199;47.526;8.538;2023-02-22T13:04:15;96137.56;;;15.15;50.40
73024;BME280;61199;47.526;8.538;2023-02-22T13:15:13;96123.25;;;15.02;50.15
73024;BME280;61199;47.526;8.538;2023-02-22T13:17:57;96129.28;;;15.34;49.59
73024;BME280;61199;47.526;8.538;2023-02-22T13:20:37;96136.28;;;15.58;49.80
73024;BME280;61199;47.526;8.538;2023-02-22T13:23:14;96128.25;;;15.43;49.71
73024;BME280;61199;47.526;8.538;2023-02-22T13:25:54;96125.91;;;15.48;49.62
73024;BME280;61199;47.526;8.538;2023-02-22T13:28:46;96129.03;;;14.97;50.40
73024;BME280;61199;47.526;8.538;2023-02-22T13:34:36;96113.41;;;15.42;49.50
73024;BME280;61199;47.526;8.538;2023-02-22T13:40:40;96114.81;;;15.61;49.12
73024;BME280;61199;47.526;8.538;2023-02-22T13:43:42;96113.31;;;15.89;48.39
73024;BME280;61199;47.526;8.538;2023-02-22T13:49:23;96112.31;;;15.59;48.81
73024;BME280;61199;47.526;8.538;2023-02-22T13:51:56;96106.81;;;15.38;50.07
73024;BME280;61199;47.526;8.538;2023-02-22T13:57:03;96109.09;;;15.49;49.30
73024;BME280;61199;47.526;8.538;2023-02-22T13:59:42;96129.63;;;15.31;49.06
73024;BME280;61199;47.526;8.538;2023-02-22T14:02:33;96111.81;;;15.33;49.78
73024;BME280;61199;47.526;8.538;2023-02-22T14:08:06;96106.19;;;15.28;49.53
73024;BME280;61199;47.526;8.538;2023-02-22T14:11:05;96102.97;;;15.02;50.60
73024;BME280;61199;47.526;8.538;2023-02-22T14:16:22;96111.59;;;15.43;49.57
73024;BME280;61199;47.526;8.538;2023-02-22T14:19:20;96125.84;;;15.10;49.75
73024;BME280;61199;47.526;8.538;2023-02-22T14:22:03;96107.69;;;15.23;49.14
73024;BME280;61199;47.526;8.538;2023-02-22T14:24:42;96125.00;;;15.33;48.92
73024;BME280;61199;47.526;8.538;2023-02-22T14:27:10;96113.66;;;15.09;49.19
73024;BME280;61199;47.526;8.538;2023-02-22T14:29:48;96104.97;;;15.00;49.65
73024;BME280;61199;47.526;8.538;2023-02-22T14:32:15;96112.88;;;14.92;50.27
73024;BME280;61199;47.526;8.538;2023-02-22T14:34:52;96116.31;;;15.01;50.19
73024;BME280;61199;47.526;8.538;2023-02-22T14:37:25;96121.03;;;14.35;51.52
73024;BME280;61199;47.526;8.538;2023-02-22T14:39:59;96126.22;;;13.87;53.27
73024;BME280;61199;47.526;8.538;2023-02-22T14:42:42;96121.16;;;14.10;52.84
73024;BME280;61199;47.526;8.538;2023-02-22T14:47:50;96135.28;;;14.01;53.50
73024;BME280;61199;47.526;8.538;2023-02-22T14:50:36;96131.53;;;14.03;54.04
73024;BME280;61199;47.526;8.538;2023-02-22T14:53:18;96128.63;;;14.38;53.48
73024;BME280;61199;47.526;8.538;2023-02-22T14:55:50;96126.28;;;14.59;52.89
73024;BME280;61199;47.526;8.538;2023-02-22T14:58:21;96129.28;;;14.56;52.95
73024;BME280;61199;47.526;8.538;2023-02-22T15:00:50;96121.19;;;14.58;52.93
73024;BME280;61199;47.526;8.538;2023-02-22T15:05:47;96128.09;;;14.51;53.61
73024;BME280;61199;47.526;8.538;2023-02-22T15:08:16;96126.47;;;14.34;53.97